Stations météo

réclame
Mon MeteoGroup
Puerto Leitariegos, Espagne (8052): Température de l'air & dewpoint: 11.10.2018 22:00:00 - 17.10.2018 22:00:00 (CEST)Puerto Leitariegos, Espagne (8052): Vitesse du vent & gusts: 11.10.2018 22:00:00 - 17.10.2018 22:00:00 (CEST)Puerto Leitariegos, Espagne (8052): Direction du vent: 11.10.2018 22:00:00 - 17.10.2018 22:00:00 (CEST)Puerto Leitariegos, Espagne (8052): visibility: 11.10.2018 22:00:00 - 17.10.2018 22:00:00 (CEST)Puerto Leitariegos, Espagne (8052): Ensoleillement: 11.10.2018 22:00:00 - 17.10.2018 22:00:00 (CEST)Puerto Leitariegos, Espagne (8052): Quantités de précipitations: 11.10.2018 22:00:00 - 17.10.2018 22:00:00 (CEST)
Date & Time tt [°C] td [°C] ff [km/h] ff [knt] fx [km/h] fx [knt] dd vv [km] sd [min] rr [mm]
17.10.2018 22:00:00 6,5 5,8 10 5 19 11 NW 0,1 0 1,4
17.10.2018 21:00:00 6,7 6,0 13 7 22 12 WNW 2,8 0 2,0
17.10.2018 20:00:00 7,4 6,7 12 7 19 10 NW 0,4 0 -
17.10.2018 19:00:00 8,1 7,2 10 5 18 10 NW 0,1 0 0,0
17.10.2018 18:00:00 - - - - - - - - - -
17.10.2018 17:00:00 10,0 6,5 16 8 21 12 NW 20 1 0,0
17.10.2018 16:00:00 - - - - - - - - - -
17.10.2018 15:00:00 11,4 5,1 10 5 22 12 SSE 20 17 0,0
17.10.2018 14:00:00 11,6 5,5 9 5 20 11 SE 20 58 -
17.10.2018 13:00:00 11,1 5,4 12 6 21 11 SSE 20 60 0,0
17.10.2018 12:00:00 10,0 6,0 11 6 19 10 SE 20 58 0,0
17.10.2018 11:00:00 - - - - - - - - - -
17.10.2018 10:00:00 6,7 5,8 3 2 5 3 ESE 6 9 0,0
17.10.2018 09:00:00 - - - - - - - - - -
17.10.2018 08:00:00 6,5 5,8 2 1 9 5 SSE 3,9 0 -
17.10.2018 07:00:00 - - - - - - - - - -
17.10.2018 06:00:00 5,5 4,3 1 1 11 6 WSW 17 0 0,0
17.10.2018 05:00:00 - - - - - - - - - -
17.10.2018 04:00:00 6,1 5,2 2 1 5 3 SSE 14 0 0,0
17.10.2018 03:00:00 6,3 5,4 3 2 6 3 SSE 7 0 0,0
17.10.2018 02:00:00 - - - - - - - - - -
17.10.2018 01:00:00 6,5 5,0 4 2 8 5 SSE 20 0 0,0
17.10.2018 00:00:00 6,9 5,5 6 3 10 5 SSE 20 0 0,0
16.10.2018 23:00:00 7,1 5,7 3 1 11 6 S 20 0 0,0
16.10.2018 22:00:00 - - - - - - - - - -
16.10.2018 21:00:00 8,3 7,4 8 4 12 6 NW 0,6 0 0,0
16.10.2018 20:00:00 - - - - - - - - - -
16.10.2018 19:00:00 9,0 7,5 11 6 18 10 NW 20 0 0,0
16.10.2018 18:00:00 10,4 7,8 15 8 24 13 NW 20 34 0,0
16.10.2018 17:00:00 - - - - - - - - - -
16.10.2018 16:00:00 11,3 8,2 14 8 21 11 NW 20 39 0,0
16.10.2018 15:00:00 - - - - - - - - - -
16.10.2018 14:00:00 9,4 6,8 10 6 18 10 NNW 20 37 -
16.10.2018 13:00:00 11,9 7,2 10 6 20 11 SSE 20 59 0,0
16.10.2018 12:00:00 - - - - - - - - - -
16.10.2018 11:00:00 8,7 6,3 10 5 14 8 SE 20 60 0,0
16.10.2018 10:00:00 - - - - - - - - - -
16.10.2018 09:00:00 3,3 2,0 - - - - - 20 0 0,0
16.10.2018 08:00:00 3,4 2,2 4 2 10 5 SSE 20 0 -
16.10.2018 07:00:00 3,7 2,2 2 1 10 5 N 20 0 0,0
16.10.2018 06:00:00 - - - - - - - - - -
16.10.2018 05:00:00 4,7 3,4 8 5 13 7 NW 20 0 0,0
16.10.2018 04:00:00 3,7 2,7 8 4 13 7 NW 20 0 0,0
16.10.2018 03:00:00 - - - - - - - - - -
16.10.2018 02:00:00 4,0 2,7 1 1 8 5 ENE 20 0 -
16.10.2018 01:00:00 5,2 3,7 1 1 6 3 N 20 0 0,0
16.10.2018 00:00:00 - - - - - - - - - -
15.10.2018 23:00:00 7,7 7,0 6 4 10 5 NNW 5 0 0,0
15.10.2018 22:00:00 - - - - - - - - - -
15.10.2018 21:00:00 7,8 6,6 6 3 - - WNW 20 0 0,0
15.10.2018 20:00:00 - - - - - - - - - -
15.10.2018 19:00:00 8,7 6,2 4 2 11 6 SSE 20 0 0,0
15.10.2018 18:00:00 - - - - - - - - - -
15.10.2018 17:00:00 9,9 6,4 10 6 21 11 SSE 20 60 0,0
15.10.2018 16:00:00 9,5 6,4 15 8 - - S 20 59 0,0
15.10.2018 15:00:00 8,5 6,1 14 8 23 12 SSE 20 38 0,0
15.10.2018 14:00:00 6,4 5,2 - - - - - 20 8 -
15.10.2018 13:00:00 - - - - - - - - - -
15.10.2018 12:00:00 4,3 3,6 17 9 27 15 SSE 20 0 0,0
15.10.2018 11:00:00 3,7 3,1 14 7 23 13 S 5 0 0,4
15.10.2018 10:00:00 - - - - - - - - - -
15.10.2018 09:00:00 2,7 2,1 13 7 21 11 SE 0,3 0 3,0
15.10.2018 08:00:00 3,0 2,4 13 7 22 12 SSE 11 0 -
15.10.2018 07:00:00 1,9 1,3 13 7 28 15 SSE 0,2 0 0,2
15.10.2018 06:00:00 1,8 1,1 16 9 22 12 SSE 4,6 0 0,6
15.10.2018 05:00:00 1,7 0,7 17 9 30 16 SSE 9 0 0,4
15.10.2018 04:00:00 - - - - - - - - - -
15.10.2018 03:00:00 2,8 1,8 18 10 39 21 SSE 20 0 0,0
15.10.2018 02:00:00 2,2 1,6 15 8 31 17 SE 6 0 -
15.10.2018 01:00:00 1,9 1,2 13 7 21 11 SE 18 0 0,0
15.10.2018 00:00:00 2,0 0,8 8 5 22 12 ESE 20 0 0,0
14.10.2018 23:00:00 2,7 1,1 7 4 20 11 WNW 20 0 0,0
14.10.2018 22:00:00 - - - - - - - - - -
14.10.2018 21:00:00 - - - - - - - - - -
14.10.2018 20:00:00 - - - - - - - - - -
14.10.2018 19:00:00 - - - - - - - - - -
14.10.2018 18:00:00 - - - - - - - - - -
14.10.2018 17:00:00 - - - - - - - - - -
14.10.2018 16:00:00 - - - - - - - - - -
14.10.2018 15:00:00 - - - - - - - - - -
14.10.2018 14:00:00 - - - - - - - - - -
14.10.2018 13:00:00 - - - - - - - - - -
14.10.2018 12:00:00 2,0 1,4 30 16 48 26 NNW 0,3 0 1,6
14.10.2018 11:00:00 0,9 0,3 20 11 37 20 NNW 1,4 0 1,2
14.10.2018 10:00:00 0,3 -0,3 28 15 41 22 NW 0,9 0 0,6
14.10.2018 09:00:00 0,3 -0,3 29 15 58 32 NW 1,9 0 0,8
14.10.2018 08:00:00 - - - - - - - - - -
14.10.2018 07:00:00 - - - - - - - - - -
14.10.2018 06:00:00 - - - - - - - - - -
14.10.2018 05:00:00 - - - - - - - - - -
14.10.2018 04:00:00 5,5 4,9 13 7 28 15 NNW 0,7 0 0,0
14.10.2018 03:00:00 5,8 5,1 18 10 55 30 NW 0,2 0 1,0
14.10.2018 02:00:00 12,1 9,1 28 15 69 37 SE 20 0 -
14.10.2018 01:00:00 13,9 8,7 31 17 53 28 SE 20 0 0,0
14.10.2018 00:00:00 14,5 8,5 26 14 54 29 SE 20 0 0,0
13.10.2018 23:00:00 13,6 9,5 17 9 51 28 SE 20 0 0,0
13.10.2018 22:00:00 - - - - - - - - - -
13.10.2018 21:00:00 12,6 9,6 14 8 37 20 SE 20 0 0,0
13.10.2018 20:00:00 - - - - - - - - - -
13.10.2018 19:00:00 14,7 9,9 17 9 37 20 SSE 20 0 0,0
13.10.2018 18:00:00 15,3 9,2 26 14 45 25 SE 20 3 0,0
13.10.2018 17:00:00 - - - - - - - - - -
13.10.2018 16:00:00 15,8 9,5 27 14 47 26 SE 20 12 0,0
13.10.2018 15:00:00 15,7 9,4 28 15 51 28 SE 20 16 0,0
13.10.2018 14:00:00 - - - - - - - - - -
13.10.2018 13:00:00 - - - - - - - - - -
13.10.2018 12:00:00 13,8 9,3 18 10 47 26 SE 20 28 0,0
13.10.2018 11:00:00 13,0 9,1 14 8 35 19 SE 20 22 0,0
13.10.2018 10:00:00 - - - - - - - - - -
13.10.2018 09:00:00 10,7 8,6 9 5 29 16 SE 20 0 0,0
13.10.2018 08:00:00 - - - - - - - - - -
13.10.2018 07:00:00 12,1 9,1 11 6 36 19 SE 20 0 0,0
13.10.2018 06:00:00 11,8 9,2 14 8 34 18 SE 20 0 0,0
13.10.2018 05:00:00 11,1 9,0 14 8 27 15 SSE 20 0 0,0
13.10.2018 04:00:00 - - - - - - - - - -
13.10.2018 03:00:00 11,7 9,1 18 10 37 20 SSE 20 0 0,0
13.10.2018 02:00:00 11,7 9,3 19 10 36 19 SSE 20 0 -
13.10.2018 01:00:00 12,0 9,2 21 11 39 21 SE 20 0 0,0
13.10.2018 00:00:00 - - - - - - - - - -
12.10.2018 23:00:00 11,9 9,5 21 11 40 21 SE 20 0 0,0
12.10.2018 22:00:00 11,6 9,7 14 8 34 18 SE 20 0 0,0
12.10.2018 21:00:00 11,2 9,6 14 8 29 15 ESE 20 0 0,0
12.10.2018 20:00:00 - - - - - - - - - -
12.10.2018 19:00:00 10,5 9,6 16 9 28 15 SE 0,7 0 0,2
12.10.2018 18:00:00 10,5 9,3 19 10 31 17 SE 10 0 0,2
12.10.2018 17:00:00 - - - - - - - - - -
12.10.2018 16:00:00 9,9 8,2 18 10 29 16 SSE 20 0 0,0
12.10.2018 15:00:00 10,4 8,0 18 10 53 29 SE 20 0 0,0
12.10.2018 14:00:00 - - - - - - - - - -
12.10.2018 13:00:00 10,0 6,7 19 10 36 20 ESE 20 0 0,0
12.10.2018 12:00:00 - - - - - - - - - -
12.10.2018 11:00:00 8,9 5,5 21 11 46 25 ESE 20 0 0,0
12.10.2018 10:00:00 - - - - - - - - - -
12.10.2018 09:00:00 7,7 3,4 20 11 39 21 ESE 20 0 0,0
12.10.2018 08:00:00 - - - - - - - - - -
12.10.2018 07:00:00 6,3 2,9 26 14 44 24 SE 20 0 0,0
12.10.2018 06:00:00 - - - - - - - - - -
12.10.2018 05:00:00 6,6 2,7 21 12 37 20 SSE 20 0 0,0
12.10.2018 04:00:00 - - - - - - - - - -
12.10.2018 03:00:00 8,5 0,7 23 12 49 26 SE 20 0 0,0
12.10.2018 02:00:00 - - - - - - - - - -
12.10.2018 01:00:00 7,9 3,8 21 12 38 20 SE 20 0 0,0
12.10.2018 00:00:00 - - - - - - - - - -
11.10.2018 23:00:00 7,9 4,7 21 11 53 29 SE 20 0 0,0
11.10.2018 22:00:00 - - - - - - - - - -

tt = Température de l'air
td = dewpoint
ff = Vitesse du vent
fx = gusts
dd = Direction du vent
vv = visibility
sd = Ensoleillement
rr = Quantités de précipitations

stations d'obs. à proximité